Meteorología y climatología de Navarra
Datos de la estación - Meteo Navarra

Estación de Etxarri-Aranatz GN

Altitud 505 m.


Datos desde el 14/08/2019 hasta el 15/08/2019 en horario solar
Los datos son PROVISIONALES

Anterior Página 1 de 1 Siguiente Descargar: Formato para Excel 2000 o superior   Formato csv   Formato para OpenOffice Calc
Fecha Temperatura Humedad relativa Radiación global Insolación Precipitación Vel. viento 10 m Vel. viento 10 m Dir. viento 10 m
ºC % W/m² s l/m² m/s km/h º
14/08/2019 0:00 8.0 94 0.0 0 0.0 0.7 2.6 317
14/08/2019 0:10 8.0 94 0.0 0 0.0 0.3 0.9 245
14/08/2019 0:20 7.4 94 0.0 0 0.0 0.5 1.8 159
14/08/2019 0:30 7.4 94 0.0 0 0.0 0.7 2.7 175
14/08/2019 0:40 7.3 95 0.0 0 0.0 0.9 3.2 175
14/08/2019 0:50 7.0 94 0.0 0 0.0 0.7 2.6 173
14/08/2019 1:00 7.0 95 0.0 0 0.0 0.7 2.3 186
14/08/2019 1:10 7.2 96 0.0 0 0.0 0.2 0.7 275
14/08/2019 1:20 7.2 95 0.0 0 0.0 0.3 1.2 312
14/08/2019 1:30 7.6 96 0.0 0 0.0 0.9 3.4 326
14/08/2019 1:40 8.0 96 0.0 0 0.0 0.6 2.2 300
14/08/2019 1:50 7.3 94 0.0 0 0.0 0.8 2.7 192
14/08/2019 2:00 7.0 95 0.0 0 0.0 0.6 2.1 173
14/08/2019 2:10 6.9 95 0.0 0 0.0 0.5 1.9 152
14/08/2019 2:20 6.6 95 0.0 0 0.0 0.4 1.6 172
14/08/2019 2:30 6.6 95 0.0 0 0.0 1.0 3.7 234
14/08/2019 2:40 6.8 96 0.0 0 0.0 0.5 1.9 222
14/08/2019 2:50 6.8 96 0.0 0 0.0 0.6 2.1 179
14/08/2019 3:00 6.5 96 0.0 0 0.0 0.6 2.3 191
14/08/2019 3:10 6.4 96 0.0 0 0.0 0.2 0.9 208
14/08/2019 3:20 6.6 96 0.0 0 0.0 0.0 0.0 180
14/08/2019 3:30 6.3 96 0.0 0 0.0 0.1 0.5 229
14/08/2019 3:40 5.8 96 0.0 0 0.0 0.7 2.5 199
14/08/2019 3:50 6.1 96 0.0 0 0.0 0.1 0.3 181
14/08/2019 4:00 5.9 96 0.0 0 0.0 0.3 1.1 204
14/08/2019 4:10 6.0 96 0.0 0 0.0 0.6 2.2 326
14/08/2019 4:20 6.3 96 0.0 0 0.0 0.3 1.0 321
14/08/2019 4:30 5.7 96 0.0 0 0.0 0.3 1.0 177
14/08/2019 4:40 5.4 96 0.0 0 0.0 0.2 0.8 159
14/08/2019 4:50 5.9 97 0.0 0 0.0 0.4 1.5 209
14/08/2019 5:00 5.3 96 0.0 0 0.0 0.5 1.8 100
14/08/2019 5:10 5.6 97 0.0 0 0.0 0.2 0.6 38
14/08/2019 5:20 5.3 96 0.0 0 0.0 0.2 0.8 235
14/08/2019 5:30 5.4 97 3.1 0 0.0 0.1 0.3 159
14/08/2019 5:40 5.7 97 28.4 198 0.0 0.3 1.1 25
14/08/2019 5:50 6.0 97 35.7 272 0.0 0.9 3.1 214
14/08/2019 6:00 5.6 97 30.5 0 0.0 0.8 3.0 206
14/08/2019 6:10 5.8 97 55.5 140 0.0 0.5 1.9 144
14/08/2019 6:20 6.4 97 123.3 600 0.0 0.5 1.8 149
14/08/2019 6:30 6.9 97 148.6 600 0.0 0.9 3.2 223
14/08/2019 6:40 7.8 98 171.5 600 0.0 0.9 3.3 216
14/08/2019 6:50 8.5 98 199.9 600 0.0 0.4 1.5 169
14/08/2019 7:00 9.0 97 237.1 600 0.0 0.5 1.8 198
14/08/2019 7:10 9.4 97 275.7 600 0.0 0.4 1.4 213
14/08/2019 7:20 9.8 96 313.8 600 0.0 0.1 0.5 230
14/08/2019 7:30 10.4 94 349.0 600 0.0 0.3 1.0 286
14/08/2019 7:40 10.9 86 382.9 600 0.0 0.4 1.5 328
14/08/2019 7:50 12.2 81 411.7 600 0.0 0.3 1.0 274
14/08/2019 8:00 13.6 74 451.1 600 0.0 0.8 3.0 204
14/08/2019 8:10 14.8 69 483.2 600 0.0 0.5 1.8 167
14/08/2019 8:20 16.2 63 507.7 600 0.0 0.4 1.4 132
14/08/2019 8:30 16.4 60 539.1 600 0.0 0.4 1.5 75
14/08/2019 8:40 16.5 61 570.3 600 0.0 0.6 2.0 307
14/08/2019 8:50 17.0 58 573.2 580 0.0 0.7 2.7 254
14/08/2019 9:00 17.4 55 624.4 600 0.0 0.6 2.3 316
14/08/2019 9:10 18.2 51 651.1 600 0.0 0.5 1.8 4
14/08/2019 9:20 18.8 47 677.8 600 0.0 0.6 2.0 43
14/08/2019 9:30 19.8 46 702.4 600 0.0 0.5 1.7 134
14/08/2019 9:40 20.0 48 726.6 600 0.0 0.7 2.7 140
14/08/2019 9:50 21.3 45 749.8 600 0.0 1.1 3.9 209
14/08/2019 10:00 21.9 43 771.9 600 0.0 1.4 5.0 213
14/08/2019 10:10 22.7 43 790.6 600 0.0 0.9 3.1 211
14/08/2019 10:20 23.2 43 807.0 600 0.0 1.0 3.6 224
14/08/2019 10:30 23.0 44 824.0 600 0.0 1.4 4.9 276
14/08/2019 10:40 23.2 44 843.0 600 0.0 1.2 4.2 313
14/08/2019 10:50 24.5 44 856.0 600 0.0 1.2 4.2 229
14/08/2019 11:00 25.0 41 871.0 600 0.0 2.0 7.2 235
14/08/2019 11:10 25.2 39 894.0 600 0.0 2.1 7.6 251
14/08/2019 11:20 24.8 40 814.0 600 0.0 0.7 2.4 291
14/08/2019 11:30 24.4 39 673.0 578 0.0 1.8 6.3 312
14/08/2019 11:40 24.5 40 771.1 580 0.0 2.1 7.7 251
14/08/2019 11:50 25.9 38 912.0 600 0.0 2.8 9.9 241
14/08/2019 12:00 26.2 36 912.0 600 0.0 2.0 7.2 267
14/08/2019 12:10 25.4 36 912.0 600 0.0 2.4 8.6 335
14/08/2019 12:20 26.0 36 912.0 600 0.0 2.7 9.6 350
14/08/2019 12:30 25.1 34 916.0 600 0.0 4.1 14.6 328
14/08/2019 12:40 25.2 35 911.0 600 0.0 3.4 12.3 329
14/08/2019 12:50 25.0 37 907.0 600 0.0 2.9 10.5 325
14/08/2019 13:00 25.4 37 901.0 600 0.0 2.9 10.4 338
14/08/2019 13:10 25.3 37 893.0 600 0.0 3.2 11.6 324
14/08/2019 13:20 25.5 37 880.0 600 0.0 1.6 5.6 285
14/08/2019 13:30 26.3 36 871.0 600 0.0 1.8 6.4 294
14/08/2019 13:40 25.6 35 858.0 600 0.0 2.3 8.3 304
14/08/2019 13:50 25.8 35 846.0 600 0.0 2.7 9.8 305
14/08/2019 14:00 25.7 35 831.0 600 0.0 2.5 9.0 304
14/08/2019 14:10 26.0 36 812.0 600 0.0 1.7 6.1 313
14/08/2019 14:20 26.2 39 790.7 600 0.0 2.2 7.9 349
14/08/2019 14:30 26.4 41 768.1 600 0.0 1.7 6.1 359
14/08/2019 14:40 26.1 41 745.6 600 0.0 2.2 8.0 355
14/08/2019 14:50 25.8 42 725.4 600 0.0 1.8 6.3 8
14/08/2019 15:00 25.9 42 702.0 600 0.0 2.1 7.7 337
14/08/2019 15:10 25.8 42 678.0 600 0.0 2.2 7.9 345
14/08/2019 15:20 25.8 42 653.9 600 0.0 1.8 6.3 3
14/08/2019 15:30 25.6 42 626.8 600 0.0 1.7 6.3 350
14/08/2019 15:40 25.5 42 603.8 600 0.0 2.2 7.9 339
14/08/2019 15:50 25.6 43 584.2 600 0.0 1.8 6.6 347
14/08/2019 16:00 25.3 43 546.8 600 0.0 2.3 8.3 332
14/08/2019 16:10 25.1 43 519.0 600 0.0 2.1 7.4 315
14/08/2019 16:20 25.0 44 496.9 600 0.0 1.6 5.8 334
14/08/2019 16:30 24.7 44 459.6 600 0.0 2.2 7.7 316
14/08/2019 16:40 24.2 46 426.8 600 0.0 2.6 9.3 315
14/08/2019 16:50 24.1 47 396.0 600 0.0 2.5 9.0 314
14/08/2019 17:00 23.8 47 324.4 502 0.0 3.2 11.5 321
14/08/2019 17:10 23.6 48 332.1 582 0.0 2.0 7.2 347
14/08/2019 17:20 23.5 49 272.3 512 0.0 1.4 4.9 352
14/08/2019 17:30 23.1 51 101.1 0 0.0 0.9 3.2 334
14/08/2019 17:40 22.9 51 83.0 12 0.0 1.6 5.9 315
14/08/2019 17:50 22.5 52 79.7 0 0.0 2.5 8.9 310
14/08/2019 18:00 22.2 54 84.0 126 0.0 2.1 7.6 331
14/08/2019 18:10 22.0 55 95.3 288 0.0 2.8 10.1 331
14/08/2019 18:20 21.7 57 46.1 0 0.0 3.0 10.8 333
14/08/2019 18:30 21.6 58 34.5 0 0.0 1.8 6.6 335
14/08/2019 18:40 21.3 59 28.3 0 0.0 1.5 5.5 343
14/08/2019 18:50 21.0 59 20.8 0 0.0 1.9 6.9 342
14/08/2019 19:00 20.9 59 4.8 0 0.0 2.4 8.6 329
14/08/2019 19:10 20.7 61 0.0 0 0.0 1.2 4.4 302
14/08/2019 19:20 20.6 61 0.0 0 0.0 1.7 6.0 311
14/08/2019 19:30 20.5 62 0.0 0 0.0 1.5 5.3 310
14/08/2019 19:40 20.4 64 0.0 0 0.0 0.9 3.4 301
14/08/2019 19:50 20.2 65 0.0 0 0.0 1.6 5.9 320
14/08/2019 20:00 20.0 67 0.0 0 0.0 1.7 6.2 302
14/08/2019 20:10 20.0 69 0.0 0 0.0 1.2 4.3 298
14/08/2019 20:20 19.8 70 0.0 0 0.0 1.1 4.1 313
14/08/2019 20:30 19.7 71 0.0 0 0.0 0.8 2.8 314
14/08/2019 20:40 19.6 71 0.0 0 0.0 0.5 1.7 305
14/08/2019 20:50 19.5 71 0.0 0 0.0 0.6 2.0 287
14/08/2019 21:00 19.3 73 0.0 0 0.0 0.9 3.4 299
14/08/2019 21:10 19.1 75 0.0 0 0.0 1.1 3.8 279
14/08/2019 21:20 19.0 77 0.0 0 0.0 0.7 2.5 272
14/08/2019 21:30 18.8 78 0.0 0 0.0 1.2 4.3 256
14/08/2019 21:40 18.6 79 0.0 0 0.0 1.2 4.4 247
14/08/2019 21:50 18.7 79 0.0 0 0.0 1.2 4.4 239
14/08/2019 22:00 18.5 80 0.0 0 0.0 1.2 4.2 241
14/08/2019 22:10 18.4 80 0.0 0 0.0 1.2 4.5 238
14/08/2019 22:20 18.4 81 0.0 0 0.0 0.5 1.9 287
14/08/2019 22:30 18.5 81 0.0 0 0.0 0.3 1.2 292
14/08/2019 22:40 18.5 81 0.0 0 0.0 0.1 0.2 315
14/08/2019 22:50 18.4 82 0.0 0 0.0 0.3 1.2 294
14/08/2019 23:00 18.3 83 0.0 0 0.0 0.9 3.2 260
14/08/2019 23:10 18.2 84 0.0 0 0.0 1.5 5.3 254
14/08/2019 23:20 18.2 85 0.0 0 0.0 1.6 5.6 248
14/08/2019 23:30 18.3 85 0.0 0 0.0 0.5 1.9 304
14/08/2019 23:40 18.3 85 0.0 0 0.0 0.5 1.8 280
14/08/2019 23:50 18.2 85 0.0 0 0.0 0.5 1.9 282
Anterior Página 1 de 1 Siguiente

NOTA: Tipo de datos según el color:
   - Valores diarios o 10 minutos correctos
   - Valores diarios calculados a partir de un número de datos 10 minutos menor que 144 y mayor que 120, o de un número de datos semihorarios menor que 48 y mayor que 40 (caso de las estaciones de Riegos de Navarra y del MARM)
   - Valores diez minutos estimados


Contacto        Enlaces        Aviso legal